createdAt,value
2023-02-02T00:01:37.689Z,3.00
2023-02-02T00:04:02.166Z,2.25
2023-02-02T00:05:07.824Z,2.00
2023-02-02T00:06:12.025Z,2.50
2023-02-02T00:07:15.932Z,4.00
2023-02-02T00:08:19.603Z,3.75
2023-02-02T00:09:23.329Z,3.50
2023-02-02T00:10:26.991Z,4.00
2023-02-02T00:11:30.682Z,3.50
2023-02-02T00:12:34.475Z,4.00
2023-02-02T00:13:37.966Z,4.50
2023-02-02T00:14:41.788Z,5.00
2023-02-02T00:15:45.218Z,4.00
2023-02-02T00:16:48.949Z,3.50
2023-02-02T00:17:52.220Z,4.00
2023-02-02T00:18:55.827Z,3.75
2023-02-02T00:19:59.007Z,4.00
2023-02-02T00:21:02.182Z,4.25
2023-02-02T00:22:05.407Z,3.00
2023-02-02T00:23:08.670Z,4.00
2023-02-02T00:24:12.638Z,4.75
2023-02-02T00:25:16.062Z,4.50
2023-02-02T00:26:19.243Z,5.00
2023-02-02T00:27:22.722Z,4.75
2023-02-02T00:28:26.321Z,4.50
2023-02-02T00:29:31.141Z,4.00
2023-02-02T00:30:35.033Z,4.00
2023-02-02T00:31:38.680Z,5.25
2023-02-02T00:32:42.002Z,5.00
2023-02-02T00:33:45.527Z,3.50
2023-02-02T00:34:49.176Z,3.75
2023-02-02T00:35:52.574Z,3.25
2023-02-02T00:36:55.777Z,3.00
2023-02-02T00:37:58.911Z,3.50
2023-02-02T00:39:02.009Z,3.00
2023-02-02T00:40:05.493Z,2.75
2023-02-02T00:41:08.759Z,3.50
2023-02-02T00:42:13.311Z,3.75
2023-02-02T00:43:17.097Z,3.25
2023-02-02T00:44:20.668Z,2.75
2023-02-02T00:45:25.676Z,3.50
2023-02-02T00:46:29.409Z,4.00
2023-02-02T00:47:33.882Z,4.25
2023-02-02T00:48:37.430Z,3.50
2023-02-02T00:49:40.900Z,3.50
2023-02-02T00:50:44.493Z,2.50
2023-02-02T00:51:48.310Z,3.00
2023-02-02T00:52:58.035Z,3.50
2023-02-02T00:55:22.798Z,4.00
2023-02-02T00:56:26.741Z,3.00
2023-02-02T00:57:30.921Z,2.00
2023-02-02T00:58:35.246Z,2.25
2023-02-02T00:59:38.932Z,2.50
2023-02-02T01:00:42.556Z,2.75
2023-02-02T01:01:46.248Z,1.50
2023-02-02T01:02:49.897Z,1.00
2023-02-02T01:03:53.749Z,2.00
2023-02-02T01:04:57.230Z,1.50
2023-02-02T01:06:00.690Z,1.00
2023-02-02T01:07:04.072Z,2.50
2023-02-02T01:08:08.004Z,3.00
2023-02-02T01:09:11.426Z,2.25
2023-02-02T01:10:15.516Z,3.00
2023-02-02T01:11:19.769Z,2.50
2023-02-02T01:12:23.659Z,1.50
2023-02-02T01:13:26.921Z,1.50
2023-02-02T01:14:30.012Z,2.00
2023-02-02T01:15:33.934Z,2.50
2023-02-02T01:16:38.321Z,3.50
2023-02-02T01:17:42.228Z,4.50
2023-02-02T01:18:54.837Z,3.50
2023-02-02T01:19:58.945Z,4.00
2023-02-02T01:21:05.807Z,3.50
2023-02-02T01:22:09.598Z,3.00
2023-02-02T01:23:13.652Z,4.00
2023-02-02T01:24:17.328Z,4.50
2023-02-02T01:25:21.206Z,3.25
2023-02-02T01:26:26.692Z,3.00
2023-02-02T01:27:30.660Z,4.00
2023-02-02T01:28:35.054Z,3.50
2023-02-02T01:29:39.179Z,2.75
2023-02-02T01:30:42.561Z,2.50
2023-02-02T01:31:46.383Z,2.50
2023-02-02T01:32:50.119Z,2.25
2023-02-02T01:33:53.733Z,2.50
2023-02-02T01:35:09.823Z,3.00
2023-02-02T01:36:13.521Z,3.25
2023-02-02T01:37:17.232Z,3.00
2023-02-02T01:38:21.711Z,3.00
2023-02-02T01:39:25.712Z,3.50
2023-02-02T01:40:29.983Z,2.50
2023-02-02T01:41:33.876Z,2.00
2023-02-02T01:42:41.653Z,1.50
2023-02-02T01:43:45.098Z,3.00
2023-02-02T01:44:51.273Z,3.25
2023-02-02T01:45:54.302Z,3.00
2023-02-02T01:46:59.789Z,3.00
2023-02-02T01:48:02.750Z,2.25
2023-02-02T01:49:07.398Z,3.00
2023-02-02T01:50:10.201Z,2.75
2023-02-02T01:51:13.253Z,2.00
2023-02-02T01:52:16.323Z,2.00
2023-02-02T01:53:19.108Z,1.75
2023-02-02T01:54:22.335Z,2.50
2023-02-02T01:55:34.128Z,3.25
2023-02-02T01:56:36.933Z,3.00
2023-02-02T01:57:39.971Z,3.00
2023-02-02T01:58:58.048Z,3.00
2023-02-02T02:00:01.448Z,3.00
2023-02-02T02:01:05.050Z,2.50
2023-02-02T02:02:08.492Z,3.00
2023-02-02T02:03:20.665Z,3.00
2023-02-02T02:04:31.756Z,2.50
2023-02-02T02:05:34.694Z,2.50
2023-02-02T02:06:37.569Z,2.00
2023-02-02T02:07:41.433Z,3.00
2023-02-02T02:08:44.620Z,3.00
2023-02-02T02:09:47.453Z,3.50
2023-02-02T02:10:50.539Z,3.25
2023-02-02T02:11:59.456Z,3.00
2023-02-02T02:13:08.980Z,3.50
2023-02-02T02:14:12.263Z,3.25
2023-02-02T02:15:15.236Z,2.50
2023-02-02T02:16:18.158Z,3.00
2023-02-02T02:17:24.626Z,3.00
2023-02-02T02:18:37.092Z,3.75
2023-02-02T02:19:40.340Z,2.75
2023-02-02T02:20:43.313Z,2.50
2023-02-02T02:21:46.630Z,4.50
2023-02-02T02:22:49.627Z,4.25
2023-02-02T02:24:11.561Z,3.00
2023-02-02T02:25:14.756Z,4.00
2023-02-02T02:26:20.154Z,3.00
2023-02-02T02:28:45.981Z,3.00
2023-02-02T02:29:52.140Z,3.25
2023-02-02T02:30:55.389Z,3.00
2023-02-02T02:33:58.170Z,4.00
2023-02-02T02:35:02.052Z,4.50
2023-02-02T02:36:05.619Z,2.50
2023-02-02T02:37:22.235Z,3.50
2023-02-02T02:41:21.498Z,4.00
2023-02-02T02:42:26.066Z,2.50
2023-02-02T02:43:29.410Z,3.00
2023-02-02T02:45:54.238Z,3.00
2023-02-02T02:46:57.921Z,3.00
2023-02-02T02:48:02.129Z,3.00
2023-02-02T02:49:05.696Z,4.50
2023-02-02T02:50:11.453Z,4.50
2023-02-02T02:51:18.662Z,4.00
2023-02-02T02:53:44.678Z,4.00
2023-02-02T02:54:48.272Z,3.00
2023-02-02T02:55:52.319Z,4.00
2023-02-02T02:56:56.301Z,4.50
2023-02-02T02:57:59.875Z,5.00
2023-02-02T02:59:03.462Z,4.00
2023-02-02T03:00:06.505Z,3.00
2023-02-02T03:01:09.868Z,2.00
2023-02-02T03:02:13.305Z,2.50
2023-02-02T03:03:18.169Z,3.25
2023-02-02T03:04:22.379Z,4.00
2023-02-02T03:05:26.527Z,3.00
2023-02-02T03:06:30.983Z,2.50
2023-02-02T03:07:34.671Z,2.75
2023-02-02T03:08:37.891Z,3.25
2023-02-02T03:09:48.495Z,3.00
2023-02-02T03:10:53.452Z,3.75
2023-02-02T03:12:12.482Z,3.25
2023-02-02T03:13:19.965Z,3.50
2023-02-02T03:14:23.966Z,4.00
2023-02-02T03:15:32.432Z,2.50
2023-02-02T03:16:41.166Z,3.75
2023-02-02T03:23:13.177Z,3.50
2023-02-02T03:25:49.638Z,3.00
2023-02-02T03:26:53.748Z,5.00
2023-02-02T03:28:04.107Z,4.50
2023-02-02T03:30:40.369Z,5.50
2023-02-02T03:33:03.816Z,4.00
2023-02-02T03:34:07.974Z,5.00
2023-02-02T03:35:11.744Z,4.50
2023-02-02T03:37:36.613Z,4.50
2023-02-02T03:38:42.477Z,6.00
2023-02-02T03:39:46.375Z,5.00
2023-02-02T03:40:50.252Z,4.50
2023-02-02T03:41:54.182Z,5.50
2023-02-02T03:42:57.737Z,6.50
2023-02-02T03:44:01.549Z,6.00
2023-02-02T03:45:05.431Z,4.25
2023-02-02T03:46:14.072Z,6.00
2023-02-02T03:47:17.865Z,5.50
2023-02-02T03:48:22.522Z,3.75
2023-02-02T03:49:26.786Z,5.00
2023-02-02T03:50:30.052Z,4.00
2023-02-02T03:51:33.683Z,5.25
2023-02-02T03:52:36.910Z,6.00
2023-02-02T03:53:40.238Z,5.50
2023-02-02T03:54:43.706Z,4.50
2023-02-02T03:55:47.098Z,4.50
2023-02-02T03:56:50.582Z,5.00
2023-02-02T03:57:54.573Z,4.50
2023-02-02T03:58:58.290Z,4.50
2023-02-02T04:00:01.762Z,4.50
2023-02-02T04:01:05.890Z,4.00
2023-02-02T04:02:09.354Z,4.00
2023-02-02T04:03:13.040Z,4.00
2023-02-02T04:04:16.988Z,3.25
2023-02-02T04:05:20.851Z,3.50
2023-02-02T04:06:24.437Z,4.50
2023-02-02T04:07:28.846Z,4.50
2023-02-02T04:08:32.778Z,5.00
2023-02-02T04:09:36.168Z,4.00
2023-02-02T04:10:40.181Z,4.50
2023-02-02T04:11:43.858Z,5.50
2023-02-02T04:12:47.428Z,4.75
2023-02-02T04:13:50.813Z,3.50
2023-02-02T04:14:54.222Z,4.00
2023-02-02T04:15:57.944Z,4.50
2023-02-02T04:17:02.034Z,5.00
2023-02-02T04:18:17.062Z,4.00
2023-02-02T04:20:33.453Z,5.00
2023-02-02T04:21:37.461Z,4.50
2023-02-02T04:22:43.347Z,4.50
2023-02-02T04:23:46.808Z,4.50
2023-02-02T04:24:50.498Z,4.50
2023-02-02T04:25:56.669Z,5.50
2023-02-02T04:27:05.195Z,4.50
2023-02-02T04:28:08.424Z,4.50
2023-02-02T04:29:12.332Z,4.50
2023-02-02T04:30:21.916Z,5.00
2023-02-02T04:31:25.195Z,4.75
2023-02-02T04:32:28.969Z,4.50
2023-02-02T04:33:32.423Z,4.25
2023-02-02T04:34:36.018Z,4.50
2023-02-02T04:35:47.518Z,5.00
2023-02-02T04:36:51.497Z,4.50
2023-02-02T04:38:04.018Z,4.50
2023-02-02T04:39:07.623Z,4.50
2023-02-02T04:40:11.474Z,3.75
2023-02-02T04:41:18.977Z,3.50
2023-02-02T04:42:28.411Z,3.00
2023-02-02T04:55:37.108Z,4.00
2023-02-02T05:12:58.900Z,6.00
2023-02-02T05:14:07.534Z,3.25
2023-02-02T05:16:38.655Z,5.00
2023-02-02T05:20:23.732Z,4.00
2023-02-02T05:33:22.531Z,4.00
2023-02-02T05:40:09.245Z,3.75
2023-02-02T05:45:17.424Z,4.00
2023-02-02T05:46:20.935Z,4.50
2023-02-02T05:47:34.949Z,4.50
2023-02-02T05:58:06.429Z,5.00
2023-02-02T06:10:00.828Z,4.00
2023-02-02T06:19:05.443Z,4.25
2023-02-02T06:20:16.677Z,3.50
2023-02-02T06:25:25.114Z,5.00
2023-02-02T06:26:32.515Z,4.00
2023-02-02T06:42:26.124Z,6.50
2023-02-02T06:43:32.981Z,7.50
2023-02-02T06:47:16.624Z,5.75
2023-02-02T06:51:15.075Z,6.00
2023-02-02T06:55:11.979Z,4.50
2023-02-02T06:56:17.611Z,4.50
2023-02-02T07:08:00.673Z,5.50
2023-02-02T07:09:06.697Z,5.50
2023-02-02T07:10:10.249Z,7.00
2023-02-02T07:11:18.752Z,6.50
2023-02-02T07:13:43.985Z,4.50
2023-02-02T07:14:51.232Z,5.00
2023-02-02T07:17:18.998Z,4.00
2023-02-02T07:18:24.419Z,5.00
2023-02-02T07:22:09.379Z,5.00
2023-02-02T07:23:15.684Z,6.00
2023-02-02T07:24:25.791Z,6.75
2023-02-02T07:27:01.665Z,5.25
2023-02-02T07:28:08.510Z,5.50
2023-02-02T07:29:22.057Z,6.00
2023-02-02T07:30:34.357Z,5.25
2023-02-02T07:31:38.803Z,7.00
2023-02-02T07:32:45.516Z,5.75
2023-02-02T07:33:56.881Z,8.25
2023-02-02T07:35:04.387Z,7.25
2023-02-02T07:36:09.938Z,6.00
2023-02-02T07:37:12.875Z,5.00
2023-02-02T07:39:37.485Z,6.00
2023-02-02T07:40:51.563Z,6.00
2023-02-02T07:42:13.436Z,6.00
2023-02-02T07:44:46.954Z,5.50
2023-02-02T07:45:54.626Z,4.75
2023-02-02T07:51:06.075Z,5.50
2023-02-02T07:52:11.354Z,6.25
2023-02-02T07:53:15.008Z,6.25
2023-02-02T07:54:19.046Z,6.25
2023-02-02T07:56:46.272Z,6.25
2023-02-02T07:57:56.848Z,5.75
2023-02-02T07:59:13.458Z,4.50
2023-02-02T08:00:19.471Z,5.00
2023-02-02T08:01:36.130Z,6.50
2023-02-02T08:02:52.037Z,7.00
2023-02-02T08:04:04.108Z,6.00
2023-02-02T08:05:09.308Z,6.00
2023-02-02T08:06:12.471Z,7.00
2023-02-02T08:07:30.163Z,7.50
2023-02-02T08:11:28.596Z,7.50
2023-02-02T08:12:39.939Z,6.00
2023-02-02T08:13:44.006Z,5.50
2023-02-02T08:14:49.299Z,5.50
2023-02-02T08:15:54.113Z,6.00
2023-02-02T08:16:58.840Z,6.50
2023-02-02T08:19:35.367Z,7.00
2023-02-02T08:20:53.137Z,5.00
2023-02-02T08:23:17.216Z,6.00
2023-02-02T08:24:20.735Z,5.50
2023-02-02T08:25:40.160Z,5.00
2023-02-02T08:26:55.611Z,6.00
2023-02-02T08:28:11.467Z,6.25
2023-02-02T08:29:21.497Z,6.50
2023-02-02T08:31:52.575Z,7.00
2023-02-02T08:33:01.410Z,6.25
2023-02-02T08:34:09.707Z,6.75
2023-02-02T08:35:13.367Z,5.50
2023-02-02T08:36:18.043Z,6.50
2023-02-02T08:37:31.255Z,6.75
2023-02-02T08:39:59.286Z,6.75
2023-02-02T08:41:09.706Z,7.50
2023-02-02T08:42:14.513Z,8.00
2023-02-02T08:43:33.586Z,7.50
2023-02-02T08:44:44.952Z,7.00
2023-02-02T08:46:04.342Z,7.50
2023-02-02T08:46:47.237Z,6.25
2023-02-02T08:48:11.340Z,7.00
2023-02-02T08:49:06.357Z,7.25
2023-02-02T08:50:10.105Z,6.75
2023-02-02T08:51:19.978Z,7.00
2023-02-02T08:52:30.768Z,6.50
2023-02-02T08:53:41.666Z,5.50
2023-02-02T08:54:45.500Z,6.50
2023-02-02T08:55:50.942Z,7.00
2023-02-02T08:56:55.575Z,10.75
2023-02-02T09:00:38.486Z,7.00
2023-02-02T09:01:42.326Z,6.50
2023-02-02T09:02:46.170Z,7.50
2023-02-02T09:03:49.887Z,7.00
2023-02-02T09:04:57.321Z,6.25
2023-02-02T09:06:01.262Z,6.00
2023-02-02T09:07:08.154Z,7.25
2023-02-02T09:08:12.206Z,8.50
2023-02-02T09:10:39.036Z,7.00
2023-02-02T09:11:43.720Z,6.50
2023-02-02T09:14:07.728Z,7.00
2023-02-02T09:15:11.019Z,8.50
2023-02-02T09:17:50.761Z,8.00
2023-02-02T09:18:58.314Z,6.00
2023-02-02T09:21:21.551Z,7.00
2023-02-02T09:23:45.071Z,7.00
2023-02-02T09:24:58.657Z,8.50
2023-02-02T09:26:10.171Z,7.50
2023-02-02T09:27:19.922Z,9.50
2023-02-02T09:28:24.010Z,7.75
2023-02-02T09:29:27.784Z,7.25
2023-02-02T09:30:33.250Z,7.50
2023-02-02T09:31:36.648Z,6.25
2023-02-02T09:32:44.289Z,7.50
2023-02-02T09:33:48.072Z,8.25
2023-02-02T09:34:56.359Z,7.50
2023-02-02T09:38:40.888Z,8.00
2023-02-02T09:39:44.480Z,9.00
2023-02-02T09:40:49.472Z,8.75
2023-02-02T09:41:58.196Z,7.75
2023-02-02T09:43:12.679Z,6.75
2023-02-02T09:44:17.992Z,6.75
2023-02-02T09:45:21.064Z,8.00
2023-02-02T09:46:26.011Z,7.50
2023-02-02T09:47:31.835Z,8.00
2023-02-02T09:48:36.281Z,8.00
2023-02-02T09:49:42.639Z,7.50
2023-02-02T09:50:48.066Z,8.50
2023-02-02T09:51:54.672Z,8.00
2023-02-02T09:52:57.631Z,7.00
2023-02-02T09:55:27.192Z,7.50
2023-02-02T09:57:57.493Z,8.50
2023-02-02T09:59:19.367Z,8.50
2023-02-02T10:00:28.462Z,7.75
2023-02-02T10:01:33.104Z,7.50
2023-02-02T10:02:39.020Z,8.50
2023-02-02T10:05:07.951Z,6.75
2023-02-02T10:06:15.737Z,7.50
2023-02-02T10:08:39.206Z,7.50
2023-02-02T10:11:02.689Z,7.50
2023-02-02T10:12:15.860Z,7.50
2023-02-02T10:13:24.987Z,8.00
2023-02-02T10:14:28.379Z,8.50
2023-02-02T10:15:31.886Z,8.00
2023-02-02T10:16:35.162Z,7.00
2023-02-02T10:17:44.072Z,8.25
2023-02-02T10:21:33.632Z,7.00
2023-02-02T10:22:38.815Z,7.50
2023-02-02T10:23:42.170Z,7.75
2023-02-02T10:24:45.346Z,6.75
2023-02-02T10:25:57.957Z,7.25
2023-02-02T10:27:12.694Z,8.50
2023-02-02T10:28:26.859Z,7.75
2023-02-02T10:33:33.195Z,9.50
2023-02-02T10:34:46.682Z,8.50
2023-02-02T10:37:12.238Z,8.00
2023-02-02T10:38:15.738Z,9.50
2023-02-02T10:39:27.756Z,8.25
2023-02-02T10:40:32.793Z,7.00
2023-02-02T10:41:35.927Z,7.50
2023-02-02T10:42:39.092Z,8.00
2023-02-02T10:43:42.039Z,6.50
2023-02-02T10:44:52.779Z,7.00
2023-02-02T10:45:55.757Z,7.00
2023-02-02T10:47:08.984Z,7.75
2023-02-02T10:48:12.193Z,7.00
2023-02-02T10:49:17.072Z,6.75
2023-02-02T10:50:19.885Z,8.00
2023-02-02T10:51:24.344Z,9.50
2023-02-02T10:52:27.540Z,8.75
2023-02-02T10:53:32.476Z,8.00
2023-02-02T10:54:55.794Z,9.50
2023-02-02T10:55:49.609Z,9.00
2023-02-02T10:56:52.535Z,7.00
2023-02-02T10:58:01.648Z,7.50
2023-02-02T10:59:05.820Z,8.00
2023-02-02T11:00:12.571Z,9.25
2023-02-02T11:01:15.829Z,8.00
2023-02-02T11:02:21.598Z,7.25
2023-02-02T11:03:28.318Z,6.50
2023-02-02T11:04:31.824Z,7.75
2023-02-02T11:05:34.940Z,7.75
2023-02-02T11:06:37.718Z,7.00
2023-02-02T11:07:45.640Z,8.00
2023-02-02T11:08:50.199Z,7.00
2023-02-02T11:09:53.290Z,8.50
2023-02-02T11:10:56.853Z,8.25
2023-02-02T11:12:06.742Z,8.00
2023-02-02T11:13:12.537Z,7.00
2023-02-02T11:14:16.100Z,7.00
2023-02-02T11:15:19.390Z,7.75
2023-02-02T11:16:22.692Z,9.00
2023-02-02T11:17:26.007Z,8.50
2023-02-02T11:18:33.746Z,8.25
2023-02-02T11:19:37.167Z,8.50
2023-02-02T11:20:40.400Z,9.00
2023-02-02T11:21:50.695Z,8.00
2023-02-02T11:22:53.734Z,10.75
2023-02-02T11:23:56.761Z,9.00
2023-02-02T11:24:59.781Z,8.25
2023-02-02T11:26:20.022Z,7.75
2023-02-02T11:27:22.961Z,7.00
2023-02-02T11:28:25.894Z,8.50
2023-02-02T11:29:28.859Z,9.75
2023-02-02T11:30:32.224Z,7.25
2023-02-02T11:31:35.341Z,7.25
2023-02-02T11:32:38.485Z,7.00
2023-02-02T11:33:44.316Z,7.50
2023-02-02T11:34:47.889Z,8.00
2023-02-02T11:35:50.791Z,7.50
2023-02-02T11:36:54.085Z,7.25
2023-02-02T11:37:58.950Z,8.00
2023-02-02T11:39:12.090Z,9.00
2023-02-02T11:40:21.828Z,7.00
2023-02-02T11:41:30.815Z,6.50
2023-02-02T11:42:37.828Z,8.00
2023-02-02T11:43:41.315Z,8.50
2023-02-02T11:44:50.485Z,8.50
2023-02-02T11:46:02.608Z,9.25
2023-02-02T11:47:04.273Z,8.75
2023-02-02T11:48:12.027Z,7.50
2023-02-02T11:49:15.666Z,9.00
2023-02-02T11:50:22.648Z,8.50
2023-02-02T11:51:27.180Z,9.00
2023-02-02T11:52:36.004Z,7.50
2023-02-02T11:53:43.030Z,8.00
2023-02-02T11:54:46.189Z,6.25
2023-02-02T11:55:49.287Z,6.00
2023-02-02T11:56:52.347Z,6.75
2023-02-02T11:57:55.314Z,8.00
2023-02-02T11:58:58.695Z,8.00
2023-02-02T12:00:01.703Z,8.25
2023-02-02T12:01:13.640Z,7.00
2023-02-02T12:02:16.863Z,7.25
2023-02-02T12:04:51.515Z,7.00
2023-02-02T12:05:55.958Z,6.50
2023-02-02T12:06:58.919Z,7.00
2023-02-02T12:08:01.866Z,6.50
2023-02-02T12:09:05.096Z,7.25
2023-02-02T12:10:07.876Z,7.00
2023-02-02T12:11:14.380Z,7.00
2023-02-02T12:12:20.523Z,7.25
2023-02-02T12:14:43.842Z,7.00
2023-02-02T12:15:58.221Z,6.50
2023-02-02T12:17:10.897Z,5.50
2023-02-02T12:18:15.152Z,7.00
2023-02-02T12:19:18.387Z,6.75
2023-02-02T12:20:24.838Z,6.25
2023-02-02T12:21:27.789Z,6.00
2023-02-02T12:22:30.696Z,5.50
2023-02-02T12:23:35.186Z,5.50
2023-02-02T12:24:38.152Z,7.00
2023-02-02T12:27:06.555Z,7.00
2023-02-02T12:28:11.763Z,6.50
2023-02-02T12:29:14.884Z,8.00
2023-02-02T12:30:17.834Z,8.75
2023-02-02T12:31:30.204Z,8.50
2023-02-02T12:32:43.762Z,8.00
2023-02-02T12:33:46.886Z,6.75
2023-02-02T12:34:50.923Z,7.75
2023-02-02T12:35:53.691Z,7.00
2023-02-02T12:36:56.633Z,6.00
2023-02-02T12:37:59.557Z,6.00
2023-02-02T12:39:02.352Z,6.00
2023-02-02T12:40:11.449Z,7.00
2023-02-02T12:41:14.500Z,8.25
2023-02-02T12:42:17.912Z,7.00
2023-02-02T12:43:29.990Z,6.00
2023-02-02T12:44:32.896Z,6.00
2023-02-02T12:45:36.104Z,6.00
2023-02-02T12:46:44.554Z,5.75
2023-02-02T12:47:47.595Z,6.25
2023-02-02T12:48:52.372Z,6.00
2023-02-02T12:49:55.209Z,4.50
2023-02-02T12:50:58.266Z,6.25
2023-02-02T12:52:06.753Z,6.75
2023-02-02T12:53:10.240Z,7.00
2023-02-02T12:54:33.922Z,6.75
2023-02-02T12:55:23.171Z,7.50
2023-02-02T12:56:26.329Z,7.00
2023-02-02T12:57:29.315Z,6.25
2023-02-02T12:58:32.067Z,6.00
2023-02-02T12:59:36.926Z,7.00
2023-02-02T13:00:39.780Z,7.50
2023-02-02T13:01:42.781Z,6.50
2023-02-02T13:02:46.202Z,6.50
2023-02-02T13:03:50.841Z,6.50
2023-02-02T13:04:56.500Z,6.50
2023-02-02T13:07:19.993Z,6.00
2023-02-02T13:08:24.275Z,6.50
2023-02-02T13:09:27.499Z,7.00
2023-02-02T13:10:30.753Z,8.00
2023-02-02T13:11:35.231Z,7.50
2023-02-02T13:12:38.769Z,6.00
2023-02-02T13:13:59.288Z,6.00
2023-02-02T13:15:02.267Z,7.50
2023-02-02T13:16:12.454Z,6.25
2023-02-02T13:17:26.449Z,5.00
2023-02-02T13:18:33.255Z,5.50
2023-02-02T13:19:36.205Z,6.00
2023-02-02T13:20:39.572Z,6.50
2023-02-02T13:21:48.204Z,5.50
2023-02-02T13:22:56.996Z,4.00
2023-02-02T13:24:00.011Z,5.00
2023-02-02T13:25:02.844Z,5.00
2023-02-02T13:26:06.076Z,6.00
2023-02-02T13:27:08.845Z,6.00
2023-02-02T13:28:11.913Z,6.75
2023-02-02T13:29:15.022Z,6.25
2023-02-02T13:30:18.256Z,5.50
2023-02-02T13:31:21.415Z,6.50
2023-02-02T13:32:28.373Z,5.25
2023-02-02T13:33:31.356Z,5.00
2023-02-02T13:34:40.941Z,6.25
2023-02-02T13:35:43.874Z,7.25
2023-02-02T13:36:46.797Z,6.00
2023-02-02T13:37:49.899Z,5.00
2023-02-02T13:38:52.837Z,5.50
2023-02-02T13:39:55.654Z,4.50
2023-02-02T13:40:58.679Z,5.50
2023-02-02T13:42:01.755Z,7.00
2023-02-02T13:43:05.951Z,6.75
2023-02-02T13:44:11.210Z,6.50
2023-02-02T13:45:14.075Z,5.50
2023-02-02T13:46:18.868Z,5.75
2023-02-02T13:47:21.796Z,5.50
2023-02-02T13:48:24.779Z,6.25
2023-02-02T13:49:27.679Z,5.00
2023-02-02T13:50:30.585Z,5.00
2023-02-02T13:51:33.777Z,5.50
2023-02-02T13:52:37.099Z,5.50
2023-02-02T13:53:40.269Z,6.50
2023-02-02T13:54:44.786Z,6.00
2023-02-02T13:55:47.416Z,6.00
2023-02-02T13:56:50.365Z,7.40
2023-02-02T13:57:53.160Z,6.00
2023-02-02T13:58:56.904Z,5.50
2023-02-02T13:59:59.830Z,5.00
2023-02-02T14:01:02.901Z,5.25
2023-02-02T14:02:05.743Z,4.75
2023-02-02T14:03:12.119Z,5.00
2023-02-02T14:04:14.873Z,5.75
2023-02-02T14:05:19.376Z,4.50
2023-02-02T14:06:21.920Z,4.75
2023-02-02T14:07:24.914Z,5.00
2023-02-02T14:08:27.861Z,5.00
2023-02-02T14:09:30.804Z,5.25
2023-02-02T14:10:33.776Z,4.50
2023-02-02T14:11:36.604Z,5.00
2023-02-02T14:12:39.808Z,5.40
2023-02-02T14:13:42.560Z,4.50
2023-02-02T14:14:45.639Z,4.00
2023-02-02T14:15:48.731Z,5.25
2023-02-02T14:16:51.483Z,5.00
2023-02-02T14:17:54.257Z,6.50
2023-02-02T14:19:01.496Z,5.75
2023-02-02T14:20:04.472Z,6.00
2023-02-02T14:21:07.783Z,3.50
2023-02-02T14:22:10.708Z,4.00
2023-02-02T14:23:13.686Z,2.75
2023-02-02T14:24:16.566Z,1.75
2023-02-02T14:25:19.551Z,2.00
2023-02-02T14:26:22.729Z,2.50
2023-02-02T14:27:25.760Z,3.00
2023-02-02T14:28:28.789Z,2.00
2023-02-02T14:29:32.025Z,3.00
2023-02-02T14:30:35.055Z,3.50
2023-02-02T14:31:37.910Z,3.00
2023-02-02T14:32:41.003Z,2.20
2023-02-02T14:33:43.779Z,2.50
2023-02-02T14:34:46.620Z,2.50
2023-02-02T14:35:49.706Z,2.00
2023-02-02T14:36:52.847Z,1.25
2023-02-02T14:37:56.024Z,2.00
2023-02-02T14:38:59.150Z,2.50
2023-02-02T14:40:03.525Z,2.50
2023-02-02T14:41:06.607Z,2.50
2023-02-02T14:42:09.437Z,1.50
2023-02-02T14:43:12.435Z,2.25
2023-02-02T14:44:15.543Z,2.75
2023-02-02T14:45:18.371Z,2.50
2023-02-02T14:46:21.358Z,2.00
2023-02-02T14:47:24.235Z,2.00
2023-02-02T14:48:27.298Z,2.25
2023-02-02T14:49:30.192Z,2.25
2023-02-02T14:50:33.124Z,1.25
2023-02-02T14:51:36.083Z,1.50
2023-02-02T14:52:39.060Z,1.75
2023-02-02T14:53:41.946Z,1.50
2023-02-02T14:54:44.900Z,1.50
2023-02-02T14:55:47.746Z,2.00
2023-02-02T14:56:50.524Z,1.50
2023-02-02T14:57:53.426Z,1.75
2023-02-02T14:58:56.422Z,1.25
2023-02-02T15:00:01.290Z,0.00
2023-02-02T15:01:04.775Z,0.00
2023-02-02T15:02:07.536Z,0.50
2023-02-02T15:03:10.639Z,1.50
2023-02-02T15:04:13.690Z,2.00
2023-02-02T15:05:16.449Z,1.50
2023-02-02T15:06:19.536Z,1.25
2023-02-02T15:07:23.929Z,1.50
2023-02-02T15:08:26.903Z,1.50
2023-02-02T15:09:31.159Z,1.50
2023-02-02T15:10:33.914Z,1.50
2023-02-02T15:11:36.692Z,1.75
2023-02-02T15:12:39.517Z,1.00
2023-02-02T15:13:42.527Z,1.25
2023-02-02T15:14:45.596Z,1.50
2023-02-02T15:15:48.977Z,1.25
2023-02-02T15:16:51.939Z,1.50
2023-02-02T15:17:54.795Z,1.00
2023-02-02T15:19:05.345Z,0.75
2023-02-02T15:20:08.139Z,1.00
2023-02-02T15:21:10.870Z,1.50
2023-02-02T15:22:15.592Z,1.40
2023-02-02T15:23:18.587Z,1.50
2023-02-02T15:24:21.357Z,1.50
2023-02-02T15:25:24.630Z,2.50
2023-02-02T15:26:27.914Z,2.50
2023-02-02T15:27:31.100Z,2.00
2023-02-02T15:28:34.131Z,2.00
2023-02-02T15:29:37.823Z,1.00
2023-02-02T15:30:40.524Z,1.50
2023-02-02T15:31:43.337Z,2.00
2023-02-02T15:32:46.316Z,2.25
2023-02-02T15:33:49.280Z,2.50
2023-02-02T15:34:52.048Z,2.00
2023-02-02T15:35:55.137Z,2.00
2023-02-02T15:36:57.841Z,2.50
2023-02-02T15:38:00.872Z,2.50
2023-02-02T15:39:03.689Z,1.50
2023-02-02T15:40:06.673Z,2.00
2023-02-02T15:41:09.857Z,1.00
2023-02-02T15:42:16.878Z,1.00
2023-02-02T15:43:18.883Z,1.00
2023-02-02T15:44:21.829Z,1.50
2023-02-02T15:45:24.769Z,2.00
2023-02-02T15:46:28.017Z,2.50
2023-02-02T15:47:30.971Z,2.50
2023-02-02T15:48:33.692Z,1.50
2023-02-02T15:49:36.780Z,0.50
2023-02-02T15:50:39.996Z,1.60
2023-02-02T15:51:47.091Z,3.00
2023-02-02T15:52:50.040Z,1.50
2023-02-02T15:53:52.921Z,1.50
2023-02-02T15:54:55.845Z,1.00
2023-02-02T15:55:59.261Z,1.00
2023-02-02T15:57:02.197Z,2.00
2023-02-02T15:58:05.196Z,2.00
2023-02-02T15:59:08.273Z,1.50
2023-02-02T16:00:11.256Z,2.00
2023-02-02T16:01:14.530Z,1.50
2023-02-02T16:02:17.595Z,0.50
2023-02-02T16:03:20.596Z,1.00
2023-02-02T16:04:23.779Z,1.50
2023-02-02T16:05:27.196Z,1.50
2023-02-02T16:06:30.385Z,1.50
2023-02-02T16:07:33.256Z,2.00
2023-02-02T16:08:36.015Z,1.50
2023-02-02T16:09:38.897Z,0.00
2023-02-02T16:10:41.933Z,1.00
2023-02-02T16:11:44.829Z,1.00
2023-02-02T16:12:47.632Z,1.00
2023-02-02T16:13:50.449Z,0.00
2023-02-02T16:14:53.241Z,0.00
2023-02-02T16:15:56.205Z,0.75
2023-02-02T16:16:59.091Z,1.50
2023-02-02T16:18:02.415Z,1.50
2023-02-02T16:19:05.087Z,1.00
2023-02-02T16:20:08.576Z,0.50
2023-02-02T16:21:11.654Z,0.25
2023-02-02T16:22:14.375Z,0.75
2023-02-02T16:23:17.553Z,1.50
2023-02-02T16:24:20.196Z,1.50
2023-02-02T16:25:25.587Z,1.50
2023-02-02T16:26:28.777Z,1.00
2023-02-02T16:27:31.843Z,0.50
2023-02-02T16:28:34.773Z,0.75
2023-02-02T16:29:37.497Z,0.25
2023-02-02T16:30:40.367Z,1.00
2023-02-02T16:31:43.331Z,2.00
2023-02-02T16:32:46.266Z,1.50
2023-02-02T16:33:49.117Z,0.50
2023-02-02T16:34:51.938Z,0.50
2023-02-02T16:36:01.123Z,0.50
2023-02-02T16:37:04.117Z,0.25
2023-02-02T16:38:06.968Z,0.50
2023-02-02T16:39:10.031Z,1.00
2023-02-02T16:40:12.957Z,1.00
2023-02-02T16:41:15.717Z,0.50
2023-02-02T16:42:18.637Z,1.00
2023-02-02T16:43:21.742Z,1.00
2023-02-02T16:44:24.556Z,0.50
2023-02-02T16:45:27.808Z,0.75
2023-02-02T16:46:31.055Z,0.50
2023-02-02T16:47:33.949Z,0.50
2023-02-02T16:48:36.858Z,0.50
2023-02-02T16:49:39.841Z,1.00
2023-02-02T16:50:42.704Z,1.25
2023-02-02T16:51:45.685Z,1.50
2023-02-02T16:52:48.637Z,1.40
2023-02-02T16:53:51.469Z,0.50
2023-02-02T16:54:54.412Z,1.50
2023-02-02T16:55:57.368Z,1.00
2023-02-02T16:57:00.308Z,0.50
2023-02-02T16:58:03.208Z,0.00
2023-02-02T16:59:06.137Z,0.00
2023-02-02T17:00:09.064Z,1.00
2023-02-02T17:01:15.911Z,1.00
2023-02-02T17:02:16.307Z,0.50
2023-02-02T17:03:19.175Z,0.50
2023-02-02T17:04:22.119Z,1.00
2023-02-02T17:05:25.600Z,0.75
2023-02-02T17:06:33.177Z,0.00
2023-02-02T17:07:32.829Z,0.00
2023-02-02T17:08:35.729Z,0.50
2023-02-02T17:09:38.399Z,0.50
2023-02-02T17:10:41.273Z,1.00
2023-02-02T17:11:44.119Z,1.50
2023-02-02T17:12:47.004Z,1.00
2023-02-02T17:13:49.922Z,0.50
2023-02-02T17:14:52.821Z,0.75
2023-02-02T17:15:55.652Z,0.50
2023-02-02T17:16:58.389Z,1.00
2023-02-02T17:18:01.273Z,0.00
2023-02-02T17:19:04.348Z,0.75
2023-02-02T17:20:07.084Z,0.25
2023-02-02T17:21:09.979Z,0.75
2023-02-02T17:22:12.757Z,0.50
2023-02-02T17:23:15.687Z,0.25
2023-02-02T17:24:18.434Z,0.00
2023-02-02T17:25:21.339Z,0.50
2023-02-02T17:26:24.220Z,1.00
2023-02-02T17:27:26.984Z,1.00
2023-02-02T17:28:29.820Z,1.00
2023-02-02T17:29:32.577Z,0.50
2023-02-02T17:30:35.495Z,0.50
2023-02-02T17:31:38.616Z,1.00
2023-02-02T17:32:41.495Z,1.50
2023-02-02T17:33:44.485Z,1.00
2023-02-02T17:34:47.235Z,0.50
2023-02-02T17:35:55.312Z,1.00
2023-02-02T17:36:54.056Z,0.25
2023-02-02T17:37:56.976Z,0.00
2023-02-02T17:38:59.919Z,0.00
2023-02-02T17:40:02.816Z,0.50
2023-02-02T17:41:05.657Z,1.00
2023-02-02T17:42:08.694Z,0.50
2023-02-02T17:43:11.511Z,0.00
2023-02-02T17:44:14.309Z,0.00
2023-02-02T17:45:17.267Z,0.50